Cercs-Sant Jordi





Hora UTC 08:25
Temperatura 5.1 ºC
Humedad 77.0 %
Pluja 0.0 mm
Velocidad viento 0.5 km/h
Dirección viento SSW
Radiación solar 245.3 W/m²

Datos diarios 2020-02-20



Hora UTC (invierno +1h; verano +2h)
Temperatura (ºC) Humedad (%) Velocidad viento (km/h) Precipitación (mm) Radiación solar (W/m²)
Hora UTC Aire Humedad Vel. Dir. Vel. Max Dir. Intent. máx 5 min. Rad. Sol.
00:05 3.0 88.2 0.1 SSW 0.1 S 0.0 0.2
00:10 3.0 88.4 1.0 W 6.1 WNW 0.0 0.1
00:15 3.0 88.6 0.0 NNE 0.0 W 0.0 0.2
00:20 3.1 88.7 0.1 S 3.4 S 0.0 0.2
00:25 3.1 87.9 0.7 ESE 3.4 E 0.0 0.1
00:30 3.1 88.2 0.4 S 3.4 S 0.0 0.2
00:35 2.9 88.5 0.0 S 3.4 S 0.0 0.1
00:40 2.9 89.2 1.5 NE 6.1 NE 0.0 0.1
00:45 3.0 88.3 1.9 NE 8.8 NNE 0.0 0.1
00:50 3.2 87.5 3.5 NNW 14.2 NNE 0.0 0.1
00:55 3.3 86.8 8.1 NW 16.9 NNW 0.0 0.2
01:00 3.2 86.9 1.8 WSW 6.1 WSW 0.0 0.1
01:05 3.0 87.9 0.1 WNW 3.4 WSW 0.0 0.2
01:10 3.0 88.0 0.0 NNW 3.4 NNW 0.0 0.1
01:15 2.9 88.3 0.0 NNE 0.0 N 0.0 0.1
01:20 2.8 88.7 1.2 ENE 6.1 ENE 0.0 0.2
01:25 2.8 88.7 0.0 SW 3.4 SW 0.0 0.1
01:30 2.6 89.3 0.0 SSW 3.4 SSW 0.0 0.1
01:35 2.5 89.7 0.0 NNE 0.0 ESE 0.0 0.2
01:40 2.4 89.9 0.1 ENE 3.4 NE 0.0 0.2
01:45 2.5 89.8 1.6 SSW 6.1 SW 0.0 0.2
01:50 2.3 90.0 1.4 WSW 6.1 SW 0.0 0.1
01:55 2.5 90.3 0.3 WSW 6.1 SW 0.0 0.1
02:00 2.4 89.6 0.8 WSW 6.1 NNW 0.0 0.1
02:05 2.5 89.9 0.2 SSW 3.4 SSW 0.0 0.2
02:10 2.5 89.8 0.2 NE 3.4 NE 0.0 0.2
02:15 2.6 89.0 0.3 NE 3.4 NE 0.0 0.1
02:20 2.8 88.3 2.4 NNE 8.8 NNE 0.0 0.1
02:25 2.7 87.8 0.0 NNE 0.0 NW 0.0 0.1
02:30 2.5 88.3 0.0 NNE 0.0 SSE 0.0 0.1
02:35 2.3 89.1 0.0 NNE 0.0 SSE 0.0 0.1
02:40 2.2 89.8 0.0 NE 3.4 NE 0.0 0.1
02:45 2.0 90.6 0.4 ENE 6.1 NE 0.0 0.1
02:50 2.2 90.2 2.6 NE 8.8 NE 0.0 0.1
02:55 2.2 89.6 1.6 SW 6.1 SW 0.0 0.1
03:00 2.0 90.5 0.0 NNE 0.0 WSW 0.0 0.1
03:05 1.8 91.3 2.8 NW 8.8 NW 0.0 0.1
03:10 2.3 90.2 4.1 NW 14.2 NW 0.0 0.2
03:15 2.3 89.0 0.8 SSW 3.4 SSW 0.0 0.1
03:20 2.1 90.0 0.7 SSW 6.1 S 0.0 0.1
03:25 2.3 90.0 2.3 N 6.1 NE 0.0 0.1
03:30 2.5 88.2 0.9 NNW 6.1 NNE 0.0 0.1
03:35 2.5 87.9 0.6 NNE 6.1 NE 0.0 0.1
03:40 2.4 88.0 2.5 WNW 8.8 NNW 0.0 0.1
03:45 2.1 88.9 2.5 WNW 6.1 W 0.0 0.2
03:50 2.2 90.1 1.3 WSW 6.1 WNW 0.0 0.1
03:55 2.2 89.5 0.6 NNW 3.4 W 0.0 0.1
04:00 2.2 89.4 0.6 S 6.1 S 0.0 0.1
04:05 2.1 89.3 0.0 NNE 0.0 SSW 0.0 0.1
04:10 2.0 89.8 1.1 NNE 6.1 NE 0.0 0.1
04:15 2.0 89.2 0.2 SSW 3.4 SW 0.0 0.2
04:20 1.8 89.9 0.2 NW 3.4 WNW 0.0 0.2
04:25 1.7 91.3 0.2 NNW 3.4 NNW 0.0 0.1
04:30 1.7 90.9 0.1 WNW 3.4 W 0.0 0.1
04:35 1.8 90.9 0.0 NNE 0.0 SW 0.0 0.1
04:40 1.8 90.5 0.8 ENE 6.1 ENE 0.0 0.1
04:45 1.8 89.9 3.5 NE 6.1 NE 0.0 0.1
04:50 1.8 89.4 1.2 NNE 6.1 NNE 0.0 0.1
04:55 1.7 89.6 1.1 SW 6.1 SSW 0.0 0.2
05:00 1.4 90.7 2.8 WSW 6.1 SW 0.0 0.1
05:05 1.4 92.0 2.5 SW 6.1 NNW 0.0 0.1
05:10 1.6 90.8 0.3 S 3.4 S 0.0 0.2
05:15 1.5 90.7 0.0 NNE 0.0 WNW 0.0 0.1
05:20 1.4 90.9 2.1 NW 14.2 NNW 0.0 0.1
05:25 1.7 90.5 6.0 NW 14.2 NW 0.0 0.2
05:30 2.1 88.7 6.0 NNW 14.2 NNW 0.0 0.1
05:35 2.3 87.4 7.6 NW 16.9 NW 0.0 0.2
05:40 2.2 87.4 6.5 NW 14.2 NW 0.0 0.2
05:45 2.2 87.3 4.8 NNW 11.5 NW 0.0 0.1
05:50 2.1 87.6 5.1 NNW 14.2 NNW 0.0 0.1
05:55 2.1 87.3 4.3 NNW 14.2 NNW 0.0 0.1
06:00 2.0 87.3 6.3 NW 14.2 NNW 0.0 0.1
06:05 2.1 87.3 7.1 WNW 14.2 NW 0.0 0.1
06:10 2.2 86.4 6.5 NW 14.2 NW 0.0 0.1
06:15 2.2 86.3 6.4 NW 11.5 N 0.0 0.2
06:20 2.3 86.0 6.1 N 16.9 NNW 0.0 0.2
06:25 2.7 84.7 5.2 N 11.5 NNE 0.0 0.5
06:30 2.8 83.8 4.0 W 8.8 NE 0.0 1.1
06:35 2.3 86.2 4.0 W 8.8 W 0.0 1.9
06:40 2.3 86.2 2.3 NNE 8.8 N 0.0 3.2
06:45 2.1 85.2 0.7 NE 6.1 N 0.0 4.7
06:50 1.6 88.0 0.6 N 6.1 N 0.0 6.6
06:55 1.6 88.2 0.6 NNE 6.1 NNW 0.0 8.6
07:00 1.7 88.4 1.4 NE 6.1 NNE 0.0 10.6
07:05 1.7 87.6 0.8 SW 3.4 SW 0.0 12.9
07:10 1.6 88.6 0.9 SE 6.1 ENE 0.0 15.0
07:15 1.7 88.5 0.1 SE 3.4 SE 0.0 18.3
07:20 1.7 88.1 0.0 NNE 0.0 S 0.0 22.4
07:25 1.7 88.2 0.1 SW 3.4 SW 0.0 24.5
07:30 1.9 88.2 0.0 NNE 0.0 SSW 0.0 26.3
07:35 2.0 87.7 1.2 ESE 6.1 NNW 0.0 28.0
07:40 2.3 85.9 1.6 S 11.5 NW 0.0 30.2
07:45 2.5 84.5 3.7 N 11.5 N 0.0 32.5
07:50 2.7 85.4 2.0 W 6.1 NNE 0.0 93.7
07:55 2.9 85.4 0.6 NNW 6.1 ENE 0.0 169.1
08:00 3.1 84.0 4.0 N 14.2 NW 0.0 179.6
08:05 3.3 83.1 5.3 NNE 14.2 N 0.0 191.2
08:10 3.7 82.4 2.9 WNW 8.8 WSW 0.0 204.7
08:15 4.2 79.3 3.8 NNE 8.8 NNE 0.0 218.0
08:20 4.5 78.1 0.8 SSW 6.1 NNE 0.0 232.1
08:25 5.1 77.0 0.5 SSW 3.4 S 0.0 245.3
Máxima 5.5 92.0 8.1 NW 16.9 NNW 0.0 245.3
Mínima 1.3 77.0
Total 0.0